Svyataya Anna — UUCV — position and weather

sailwx.info

Track history (hours):
 
Tides and Currents Weather Stations Pressure Air Temp Water Temp Dewpoint Dewpoint Depression Visibility Wind Speed Wind Dir Waves Ship Positions

Svyataya Anna

Last reported at 2014-Aug-16 21:16 UTC. Time now 2014-Sep-16 17:31 UTC.
Position N 45°58' E 031°37'.
Warning: this ship's position is 30 days out of date.

Length 93 m; draft 3.2 m.

Type: Cargo ship. MMSI: 272068800.

Date/timePositionNaut miles runAvg speedWind from/ knotsBaromVisibWave heightAir tempDewpointWater temp
2014-Aug-16 21:16N 45°58' E 031°37'146 5.1
2014-Aug-15 16:23N 44°18' E 034°09'4 5.1
2014-Aug-15 15:33N 44°19' E 034°15'5 5.5
2014-Aug-15 14:33N 44°22' E 034°21'6 5.7
2014-Aug-15 13:33N 44°25' E 034°27'6 5.9
2014-Aug-15 12:33N 44°29' E 034°34'5 5.3
2014-Aug-15 11:33N 44°31' E 034°41'9 4.3
2014-Aug-15 09:34N 44°36' E 034°50'5 5.4
2014-Aug-15 08:34N 44°39' E 034°57'6 5.5
2014-Aug-15 07:33N 44°42' E 035°04'6 5.7
2014-Aug-15 06:33N 44°45' E 035°11'5 5.4
2014-Aug-15 05:33N 44°48' E 035°17'  
Track history (hours):
 
Tides and Currents Weather Stations Pressure Air Temp Water Temp Dewpoint Dewpoint Depression Visibility Wind Speed Wind Dir Waves Ship Positions

Svyataya Anna

Last reported at 2014-Aug-16 21:16 UTC. Time now 2014-Sep-16 17:31 UTC.
Position N 45°58' E 031°37'.
Warning: this ship's position is 30 days out of date.

Length 93 m; draft 3.2 m.

Type: Cargo ship. MMSI: 272068800.

Date/timePositionNaut miles runAvg speedWind from/ knotsBaromVisibWave heightAir tempDewpointWater temp
2014-Aug-16 21:16N 45°58' E 031°37'146 5.1
2014-Aug-15 16:23N 44°18' E 034°09'4 5.1
2014-Aug-15 15:33N 44°19' E 034°15'5 5.5
2014-Aug-15 14:33N 44°22' E 034°21'6 5.7
2014-Aug-15 13:33N 44°25' E 034°27'6 5.9
2014-Aug-15 12:33N 44°29' E 034°34'5 5.3
2014-Aug-15 11:33N 44°31' E 034°41'9 4.3
2014-Aug-15 09:34N 44°36' E 034°50'5 5.4
2014-Aug-15 08:34N 44°39' E 034°57'6 5.5
2014-Aug-15 07:33N 44°42' E 035°04'6 5.7
2014-Aug-15 06:33N 44°45' E 035°11'5 5.4
2014-Aug-15 05:33N 44°48' E 035°17'  

Dump ship's entire track history